createdAt,value
2018-09-18T00:01:03.499Z,98010.30
2018-09-18T00:03:31.183Z,98015.28
2018-09-18T00:05:58.868Z,98013.11
2018-09-18T00:08:26.558Z,98011.91
2018-09-18T00:10:54.218Z,98015.61
2018-09-18T00:13:21.914Z,98009.63
2018-09-18T00:15:49.566Z,98002.70
2018-09-18T00:18:17.223Z,98005.88
2018-09-18T00:20:44.871Z,98005.76
2018-09-18T00:23:12.525Z,98007.69
2018-09-18T00:25:40.240Z,98010.69
2018-09-18T00:28:07.889Z,98004.06
2018-09-18T00:30:35.541Z,97999.34
2018-09-18T00:33:03.208Z,97994.68
2018-09-18T00:35:30.844Z,97994.45
2018-09-18T00:37:58.481Z,97994.09
2018-09-18T00:40:26.096Z,97987.17
2018-09-18T00:42:53.755Z,97986.53
2018-09-18T00:45:21.394Z,97994.68
2018-09-18T00:47:49.156Z,97991.10
2018-09-18T00:50:16.835Z,97992.45
2018-09-18T00:52:44.497Z,97995.03
2018-09-18T00:55:12.201Z,97993.98
2018-09-18T00:57:39.887Z,97990.81
2018-09-18T01:00:07.539Z,97992.80
2018-09-18T01:02:35.275Z,97991.89
2018-09-18T01:05:02.993Z,97979.88
2018-09-18T01:07:30.703Z,97984.42
2018-09-18T01:09:58.381Z,97986.47
2018-09-18T01:12:26.029Z,97971.53
2018-09-18T01:14:53.715Z,97970.45
2018-09-18T01:17:21.533Z,97978.47
2018-09-18T01:19:49.259Z,97975.80
2018-09-18T01:22:16.878Z,97976.86
2018-09-18T01:24:44.722Z,97976.54
2018-09-18T01:27:12.652Z,97975.02
2018-09-18T01:29:40.433Z,97967.86
2018-09-18T01:32:08.323Z,97969.39
2018-09-18T01:34:36.286Z,97973.17
2018-09-18T01:37:04.370Z,97968.42
2018-09-18T01:39:32.414Z,97972.11
2018-09-18T01:42:00.005Z,97971.88
2018-09-18T01:44:27.895Z,97969.94
2018-09-18T01:46:55.536Z,97967.59
2018-09-18T01:49:23.255Z,97965.42
2018-09-18T01:51:50.931Z,97966.13
2018-09-18T01:54:18.664Z,97961.27
2018-09-18T01:56:46.412Z,97966.89
2018-09-18T01:59:14.017Z,97961.56
2018-09-18T02:01:41.644Z,97964.81
2018-09-18T02:04:09.318Z,97960.25
2018-09-18T02:06:37.014Z,97961.01
2018-09-18T02:09:05.480Z,97960.77
2018-09-18T02:11:33.186Z,97964.05
2018-09-18T02:14:00.917Z,97963.38
2018-09-18T02:16:28.592Z,97965.87
2018-09-18T02:18:56.394Z,97965.46
2018-09-18T02:21:24.109Z,97965.34
2018-09-18T02:23:51.805Z,97959.07
2018-09-18T02:26:19.840Z,97966.87
2018-09-18T02:28:47.609Z,97963.94
2018-09-18T02:31:15.295Z,97965.11
2018-09-18T02:33:42.952Z,97960.77
2018-09-18T02:36:10.656Z,97963.94
2018-09-18T02:38:38.322Z,97962.70
2018-09-18T02:41:06.117Z,97960.33
2018-09-18T02:43:33.862Z,97957.84
2018-09-18T02:46:01.718Z,97953.53
2018-09-18T02:48:29.383Z,97952.86
2018-09-18T02:50:57.045Z,97949.61
2018-09-18T02:53:24.715Z,97952.63
2018-09-18T02:55:52.933Z,97948.20
2018-09-18T02:58:20.654Z,97953.30
2018-09-18T03:00:48.334Z,97950.25
2018-09-18T03:03:16.054Z,97949.93
2018-09-18T03:05:43.779Z,97958.53
2018-09-18T03:08:11.489Z,97951.95
2018-09-18T03:10:39.170Z,97954.52
2018-09-18T03:13:06.904Z,97953.20
2018-09-18T03:15:34.536Z,97959.83
2018-09-18T03:18:02.168Z,97954.16
2018-09-18T03:20:29.835Z,97958.05
2018-09-18T03:22:57.474Z,97961.19
2018-09-18T03:25:25.149Z,97957.93
2018-09-18T03:27:52.805Z,97955.80
2018-09-18T03:30:20.565Z,97958.73
2018-09-18T03:32:48.334Z,97957.81
2018-09-18T03:35:16.031Z,97956.80
2018-09-18T03:37:43.667Z,97954.55
2018-09-18T03:40:11.303Z,97960.07
2018-09-18T03:42:39.027Z,97952.59
2018-09-18T03:45:06.658Z,97952.66
2018-09-18T03:47:34.275Z,97950.89
2018-09-18T03:50:01.927Z,97948.67
2018-09-18T03:52:29.540Z,97956.13
2018-09-18T03:54:57.199Z,97951.55
2018-09-18T03:57:24.853Z,97948.28
2018-09-18T03:59:52.544Z,97944.90
2018-09-18T04:02:20.162Z,97947.83
2018-09-18T04:04:47.816Z,97939.86
2018-09-18T04:07:15.490Z,97949.56
2018-09-18T04:09:43.172Z,97950.39
2018-09-18T04:12:10.924Z,97947.12
2018-09-18T04:14:38.580Z,97946.62
2018-09-18T04:17:06.225Z,97945.13
2018-09-18T04:19:33.829Z,97950.75
2018-09-18T04:22:01.537Z,97950.20
2018-09-18T04:24:29.360Z,97945.83
2018-09-18T04:26:56.980Z,97945.95
2018-09-18T04:29:24.654Z,97943.67
2018-09-18T04:31:52.301Z,97940.09
2018-09-18T04:34:20.143Z,97944.91
2018-09-18T04:36:47.825Z,97947.34
2018-09-18T04:39:19.017Z,97942.27
2018-09-18T04:41:48.802Z,97937.05
2018-09-18T04:44:18.591Z,97944.88
2018-09-18T04:46:48.797Z,97947.86
2018-09-18T04:49:18.581Z,97951.06
2018-09-18T04:51:46.522Z,97947.27
2018-09-18T04:54:14.181Z,97945.57
2018-09-18T04:56:41.789Z,97943.66
2018-09-18T04:59:09.399Z,97941.48
2018-09-18T05:01:37.136Z,97938.48
2018-09-18T05:04:04.907Z,97944.56
2018-09-18T05:06:32.764Z,97946.98
2018-09-18T05:09:00.750Z,97938.70
2018-09-18T05:11:28.623Z,97941.76
2018-09-18T05:13:56.765Z,97946.06
2018-09-18T05:16:24.672Z,97942.69
2018-09-18T05:18:52.634Z,97949.58
2018-09-18T05:21:20.608Z,97943.06
2018-09-18T05:23:48.572Z,97945.87
2018-09-18T05:26:16.521Z,97947.22
2018-09-18T05:28:44.394Z,97950.25
2018-09-18T05:31:12.340Z,97949.98
2018-09-18T05:33:40.189Z,97949.28
2018-09-18T05:36:08.026Z,97955.24
2018-09-18T05:38:35.880Z,97953.66
2018-09-18T05:41:04.035Z,97955.77
2018-09-18T05:43:31.949Z,97961.02
2018-09-18T05:45:59.790Z,97954.34
2018-09-18T05:48:32.380Z,97949.62
2018-09-18T05:51:00.354Z,97949.81
2018-09-18T05:53:28.361Z,97948.09
2018-09-18T05:55:56.217Z,97943.95
2018-09-18T05:58:24.085Z,97949.23
2018-09-18T06:00:51.947Z,97944.65
2018-09-18T06:03:19.839Z,97943.23
2018-09-18T06:05:47.784Z,97941.48
2018-09-18T06:08:15.695Z,97953.93
2018-09-18T06:10:43.518Z,97944.36
2018-09-18T06:13:11.508Z,97947.73
2018-09-18T06:15:39.409Z,97943.87
2018-09-18T06:18:07.238Z,97943.83
2018-09-18T06:20:35.136Z,97949.98
2018-09-18T06:23:02.985Z,97956.64
2018-09-18T06:25:30.910Z,97955.45
2018-09-18T06:27:58.717Z,97959.83
2018-09-18T06:30:26.490Z,97956.81
2018-09-18T06:32:54.472Z,97959.02
2018-09-18T06:35:22.564Z,97957.25
2018-09-18T06:37:50.428Z,97960.13
2018-09-18T06:40:18.308Z,97958.98
2018-09-18T06:42:46.407Z,97963.32
2018-09-18T06:45:14.519Z,97962.64
2018-09-18T06:47:42.489Z,97964.22
2018-09-18T06:50:10.405Z,97960.99
2018-09-18T06:52:38.361Z,97962.62
2018-09-18T06:55:06.509Z,97965.18
2018-09-18T06:57:34.391Z,97964.50
2018-09-18T07:00:02.316Z,97965.29
2018-09-18T07:02:30.186Z,97969.80
2018-09-18T07:04:58.041Z,97975.52
2018-09-18T07:07:25.896Z,97973.09
2018-09-18T07:09:53.693Z,97981.35
2018-09-18T07:12:21.548Z,97971.77
2018-09-18T07:14:49.529Z,97966.90
2018-09-18T07:17:17.433Z,97962.47
2018-09-18T07:19:45.336Z,97959.11
2018-09-18T07:22:13.440Z,97964.81
2018-09-18T07:24:41.474Z,97956.70
2018-09-18T07:27:09.320Z,97950.98
2018-09-18T07:29:37.154Z,97949.36
2018-09-18T07:32:05.117Z,97946.60
2018-09-18T07:34:33.033Z,97950.28
2018-09-18T07:37:00.890Z,97955.88
2018-09-18T07:39:28.725Z,97953.83
2018-09-18T07:41:56.769Z,97956.21
2018-09-18T07:44:24.670Z,97953.59
2018-09-18T07:46:52.545Z,97947.39
2018-09-18T07:49:20.374Z,97948.58
2018-09-18T07:51:48.201Z,97950.26
2018-09-18T07:54:16.073Z,97946.59
2018-09-18T07:56:44.165Z,97952.35
2018-09-18T07:59:12.211Z,97952.39
2018-09-18T08:01:40.058Z,97950.34
2018-09-18T08:04:07.892Z,97952.09
2018-09-18T08:06:35.753Z,97949.23
2018-09-18T08:09:05.750Z,97941.30
2018-09-18T08:11:33.729Z,97939.66
2018-09-18T08:14:01.713Z,97937.27
2018-09-18T08:16:29.772Z,97941.70
2018-09-18T08:18:57.844Z,97938.34
2018-09-18T08:21:25.630Z,97941.41
2018-09-18T08:23:53.445Z,97935.95
2018-09-18T08:26:21.340Z,97937.87
2018-09-18T08:28:49.241Z,97937.84
2018-09-18T08:31:17.083Z,97941.41
2018-09-18T08:33:44.972Z,97945.23
2018-09-18T08:36:12.850Z,97943.08
2018-09-18T08:38:40.507Z,97942.40
2018-09-18T08:41:08.258Z,97945.89
2018-09-18T08:43:35.978Z,97942.03
2018-09-18T08:46:03.683Z,97944.08
2018-09-18T08:48:32.025Z,97943.85
2018-09-18T08:51:00.921Z,97939.73
2018-09-18T08:53:29.122Z,97937.59
2018-09-18T08:55:56.902Z,97938.59
2018-09-18T08:58:25.122Z,97943.20
2018-09-18T09:00:53.028Z,97932.94
2018-09-18T09:03:21.043Z,97924.93
2018-09-18T09:05:48.978Z,97924.38
2018-09-18T09:08:16.985Z,97923.81
2018-09-18T09:10:45.008Z,97926.53
2018-09-18T09:13:12.863Z,97925.73
2018-09-18T09:15:41.147Z,97930.27
2018-09-18T09:18:09.120Z,97923.84
2018-09-18T09:20:37.088Z,97929.66
2018-09-18T09:23:05.072Z,97920.07
2018-09-18T09:25:32.877Z,97927.86
2018-09-18T09:28:00.788Z,97927.30
2018-09-18T09:30:28.637Z,97921.65
2018-09-18T09:32:56.663Z,97928.22
2018-09-18T09:35:31.289Z,97925.07
2018-09-18T09:37:59.180Z,97919.70
2018-09-18T09:40:27.109Z,97913.55
2018-09-18T09:42:55.016Z,97906.26
2018-09-18T09:45:22.901Z,97903.73
2018-09-18T09:47:50.930Z,97908.64
2018-09-18T09:50:18.802Z,97910.14
2018-09-18T09:52:46.908Z,97905.23
2018-09-18T09:55:14.748Z,97906.56
2018-09-18T09:57:42.624Z,97900.61
2018-09-18T10:00:15.946Z,97895.70
2018-09-18T10:02:45.759Z,97904.98
2018-09-18T10:05:13.952Z,97897.05
2018-09-18T10:07:42.114Z,97889.84
2018-09-18T10:10:10.203Z,97890.89
2018-09-18T10:12:38.348Z,97891.34
2018-09-18T10:15:06.982Z,97891.17
2018-09-18T10:17:34.930Z,97879.32
2018-09-18T10:20:02.882Z,97886.81
2018-09-18T10:22:30.775Z,97886.17
2018-09-18T10:24:58.773Z,97880.98
2018-09-18T10:27:26.725Z,97881.67
2018-09-18T10:29:54.590Z,97876.47
2018-09-18T10:32:22.538Z,97873.63
2018-09-18T10:34:50.321Z,97877.53
2018-09-18T10:37:18.183Z,97878.41
2018-09-18T10:39:46.101Z,97881.34
2018-09-18T10:42:14.212Z,97869.19
2018-09-18T10:44:42.021Z,97866.53
2018-09-18T10:47:09.721Z,97866.86
2018-09-18T10:49:37.422Z,97861.19
2018-09-18T10:52:05.123Z,97852.05
2018-09-18T10:54:32.788Z,97859.25
2018-09-18T10:57:00.492Z,97851.48
2018-09-18T10:59:28.148Z,97842.13
2018-09-18T11:01:55.886Z,97839.89
2018-09-18T11:04:23.677Z,97839.22
2018-09-18T11:06:51.649Z,97834.63
2018-09-18T11:09:19.414Z,97828.23
2018-09-18T11:11:47.135Z,97837.50
2018-09-18T11:14:14.830Z,97835.63
2018-09-18T11:16:42.528Z,97833.94
2018-09-18T11:19:10.417Z,97830.48
2018-09-18T11:21:38.708Z,97826.13
2018-09-18T11:24:06.361Z,97834.70
2018-09-18T11:26:34.607Z,97825.45
2018-09-18T11:29:02.588Z,97832.30
2018-09-18T11:31:30.797Z,97829.13
2018-09-18T11:33:58.598Z,97821.53
2018-09-18T11:36:27.346Z,97818.73
2018-09-18T11:38:55.550Z,97819.54
2018-09-18T11:41:23.750Z,97821.80
2018-09-18T11:43:51.617Z,97814.48
2018-09-18T11:46:19.711Z,97806.23
2018-09-18T11:48:47.753Z,97805.39
2018-09-18T11:51:15.726Z,97806.70
2018-09-18T11:53:43.756Z,97800.55
2018-09-18T11:56:11.596Z,97807.78
2018-09-18T11:58:39.525Z,97801.00
2018-09-18T12:01:07.519Z,97805.00
2018-09-18T12:03:35.502Z,97791.06
2018-09-18T12:06:03.467Z,97792.55
2018-09-18T12:08:31.482Z,97778.23
2018-09-18T12:10:59.460Z,97793.94
2018-09-18T12:13:27.405Z,97797.55
2018-09-18T12:15:55.278Z,97789.28
2018-09-18T12:18:23.133Z,97783.13
2018-09-18T12:20:51.050Z,97791.83
2018-09-18T12:23:19.080Z,97782.60
2018-09-18T12:25:46.938Z,97772.89
2018-09-18T12:28:14.949Z,97771.85
2018-09-18T12:30:43.229Z,97767.04
2018-09-18T12:33:11.081Z,97769.98
2018-09-18T12:35:39.139Z,97759.41
2018-09-18T12:38:07.252Z,97759.87
2018-09-18T12:40:35.196Z,97759.75
2018-09-18T12:43:03.232Z,97762.39
2018-09-18T12:45:31.041Z,97748.73
2018-09-18T12:47:59.039Z,97753.08
2018-09-18T12:50:26.926Z,97744.13
2018-09-18T12:52:54.849Z,97744.06
2018-09-18T12:55:22.736Z,97742.17
2018-09-18T12:57:50.575Z,97746.25
2018-09-18T13:00:18.610Z,97738.16
2018-09-18T13:02:46.427Z,97740.03
2018-09-18T13:05:14.482Z,97737.66
2018-09-18T13:07:42.708Z,97731.88
2018-09-18T13:10:10.772Z,97736.13
2018-09-18T13:12:38.693Z,97731.25
2018-09-18T13:15:06.618Z,97729.03
2018-09-18T13:17:34.625Z,97726.56
2018-09-18T13:20:02.602Z,97727.30
2018-09-18T13:22:30.892Z,97729.75
2018-09-18T13:24:58.927Z,97724.89
2018-09-18T13:27:26.746Z,97721.60
2018-09-18T13:29:54.638Z,97718.96
2018-09-18T13:32:22.525Z,97715.38
2018-09-18T13:34:50.483Z,97710.14
2018-09-18T13:37:18.417Z,97708.47
2018-09-18T13:39:46.460Z,97699.22
2018-09-18T13:42:14.489Z,97704.36
2018-09-18T13:44:42.359Z,97704.16
2018-09-18T13:47:11.147Z,97705.25
2018-09-18T13:49:39.122Z,97693.25
2018-09-18T13:52:07.506Z,97710.61
2018-09-18T13:54:35.553Z,97700.70
2018-09-18T13:57:03.546Z,97697.16
2018-09-18T13:59:31.463Z,97698.56
2018-09-18T14:02:00.018Z,97691.54
2018-09-18T14:04:28.026Z,97693.97
2018-09-18T14:06:56.157Z,97696.94
2018-09-18T14:09:24.575Z,97694.41
2018-09-18T14:11:52.525Z,97695.72
2018-09-18T14:14:21.108Z,97694.00
2018-09-18T14:16:49.448Z,97689.11
2018-09-18T14:19:17.702Z,97695.70
2018-09-18T14:21:45.911Z,97696.33
2018-09-18T14:24:13.758Z,97696.02
2018-09-18T14:26:42.023Z,97701.09
2018-09-18T14:29:10.046Z,97696.27
2018-09-18T14:31:38.336Z,97688.23
2018-09-18T14:34:06.517Z,97697.67
2018-09-18T14:36:34.807Z,97692.39
2018-09-18T14:39:04.529Z,97693.96
2018-09-18T14:41:32.525Z,97688.63
2018-09-18T14:44:00.403Z,97691.31
2018-09-18T14:46:28.717Z,97688.82
2018-09-18T14:48:56.635Z,97688.45
2018-09-18T14:51:24.794Z,97692.14
2018-09-18T14:53:52.962Z,97684.27
2018-09-18T14:56:20.750Z,97684.05
2018-09-18T14:58:48.599Z,97677.56
2018-09-18T15:01:16.746Z,97679.42
2018-09-18T15:03:44.576Z,97677.20
2018-09-18T15:06:12.551Z,97686.92
2018-09-18T15:08:40.639Z,97685.34
2018-09-18T15:11:08.480Z,97679.15
2018-09-18T15:13:36.357Z,97675.91
2018-09-18T15:16:04.338Z,97682.30
2018-09-18T15:18:32.486Z,97684.55
2018-09-18T15:21:00.360Z,97679.16
2018-09-18T15:23:28.241Z,97680.95
2018-09-18T15:25:56.500Z,97682.05
2018-09-18T15:28:24.389Z,97685.20
2018-09-18T15:30:52.338Z,97679.95
2018-09-18T15:33:20.242Z,97677.41
2018-09-18T15:35:48.283Z,97680.14
2018-09-18T15:38:16.566Z,97674.70
2018-09-18T15:40:44.469Z,97675.52
2018-09-18T15:43:12.228Z,97675.46
2018-09-18T15:45:40.237Z,97679.05
2018-09-18T15:48:08.086Z,97676.63
2018-09-18T15:50:35.844Z,97680.30
2018-09-18T15:53:03.576Z,97682.92
2018-09-18T15:55:31.336Z,97684.00
2018-09-18T15:57:59.095Z,97681.19
2018-09-18T16:00:26.853Z,97681.53
2018-09-18T16:02:54.667Z,97674.16
2018-09-18T16:05:22.389Z,97675.75
2018-09-18T16:07:50.132Z,97674.63
2018-09-18T16:10:17.796Z,97674.45
2018-09-18T16:12:45.535Z,97678.67
2018-09-18T16:15:13.318Z,97677.41
2018-09-18T16:17:40.955Z,97676.81
2018-09-18T16:20:08.659Z,97681.80
2018-09-18T16:22:36.350Z,97680.55
2018-09-18T16:25:04.172Z,97671.89
2018-09-18T16:27:31.865Z,97682.49
2018-09-18T16:29:59.514Z,97675.66
2018-09-18T16:32:27.248Z,97679.22
2018-09-18T16:34:54.915Z,97685.68
2018-09-18T16:37:22.588Z,97685.80
2018-09-18T16:39:50.418Z,97678.56
2018-09-18T16:42:18.091Z,97684.69
2018-09-18T16:44:45.751Z,97686.47
2018-09-18T16:47:13.426Z,97687.89
2018-09-18T16:49:41.237Z,97689.16
2018-09-18T16:52:08.934Z,97678.61
2018-09-18T16:54:36.733Z,97684.83
2018-09-18T16:57:04.425Z,97682.61
2018-09-18T16:59:32.281Z,97682.59
2018-09-18T17:01:59.980Z,97685.98
2018-09-18T17:04:27.748Z,97685.23
2018-09-18T17:06:55.611Z,97687.10
2018-09-18T17:09:23.370Z,97686.40
2018-09-18T17:11:51.141Z,97685.95
2018-09-18T17:14:18.907Z,97689.41
2018-09-18T17:16:46.606Z,97683.72
2018-09-18T17:19:14.499Z,97678.23
2018-09-18T17:21:42.671Z,97691.87
2018-09-18T17:24:10.353Z,97694.13
2018-09-18T17:26:38.093Z,97694.22
2018-09-18T17:29:17.455Z,97699.36
2018-09-18T17:31:45.522Z,97702.94
2018-09-18T17:34:13.535Z,97697.03
2018-09-18T17:36:41.270Z,97702.11
2018-09-18T17:39:09.897Z,97700.22
2018-09-18T17:41:37.687Z,97699.63
2018-09-18T17:44:05.405Z,97706.02
2018-09-18T17:46:33.127Z,97702.49
2018-09-18T17:49:00.788Z,97714.84
2018-09-18T17:51:28.484Z,97718.08
2018-09-18T17:53:56.145Z,97720.26
2018-09-18T17:56:23.861Z,97719.36
2018-09-18T17:58:51.614Z,97717.02
2018-09-18T18:01:19.335Z,97719.36
2018-09-18T18:03:47.281Z,97719.25
2018-09-18T18:06:14.996Z,97724.26
2018-09-18T18:08:42.683Z,97731.03
2018-09-18T18:11:10.431Z,97729.52
2018-09-18T18:13:38.178Z,97733.11
2018-09-18T18:16:05.917Z,97734.20
2018-09-18T18:18:34.485Z,97737.02
2018-09-18T18:21:02.236Z,97733.17
2018-09-18T18:23:29.945Z,97735.05
2018-09-18T18:25:57.630Z,97738.52
2018-09-18T18:28:25.418Z,97738.86
2018-09-18T18:30:53.174Z,97743.63
2018-09-18T18:33:20.936Z,97744.47
2018-09-18T18:35:48.694Z,97744.98
2018-09-18T18:38:16.554Z,97753.23
2018-09-18T18:40:44.272Z,97755.47
2018-09-18T18:43:12.131Z,97752.75
2018-09-18T18:45:39.838Z,97758.52
2018-09-18T18:48:07.820Z,97760.99
2018-09-18T18:50:35.499Z,97755.73
2018-09-18T18:53:03.172Z,97757.06
2018-09-18T18:55:30.840Z,97758.90
2018-09-18T18:57:58.556Z,97761.46
2018-09-18T19:00:26.449Z,97764.97
2018-09-18T19:02:54.268Z,97766.05
2018-09-18T19:05:22.137Z,97770.64
2018-09-18T19:07:49.857Z,97766.14
2018-09-18T19:10:17.693Z,97762.64
2018-09-18T19:12:45.430Z,97765.70
2018-09-18T19:15:13.125Z,97762.11
2018-09-18T19:17:40.822Z,97773.03
2018-09-18T19:20:08.517Z,97775.02
2018-09-18T19:22:36.311Z,97773.30
2018-09-18T19:25:04.107Z,97770.45
2018-09-18T19:27:33.038Z,97776.03
2018-09-18T19:30:00.719Z,97772.88
2018-09-18T19:32:28.425Z,97775.28
2018-09-18T19:34:56.137Z,97781.44
2018-09-18T19:37:23.817Z,97782.51
2018-09-18T19:39:51.554Z,97781.80
2018-09-18T19:42:19.289Z,97787.14
2018-09-18T19:44:47.144Z,97785.37
2018-09-18T19:47:14.909Z,97790.19
2018-09-18T19:49:42.645Z,97793.58
2018-09-18T19:52:11.127Z,97792.82
2018-09-18T19:54:39.842Z,97790.38
2018-09-18T19:57:07.536Z,97790.95
2018-09-18T19:59:35.328Z,97794.89
2018-09-18T20:02:03.089Z,97794.03
2018-09-18T20:04:30.972Z,97794.08
2018-09-18T20:06:58.945Z,97802.39
2018-09-18T20:09:26.818Z,97795.03
2018-09-18T20:11:54.565Z,97798.63
2018-09-18T20:14:22.312Z,97798.44
2018-09-18T20:16:50.204Z,97797.97
2018-09-18T20:19:17.936Z,97800.70
2018-09-18T20:21:45.650Z,97800.25
2018-09-18T20:24:13.320Z,97801.13
2018-09-18T20:26:40.985Z,97794.86
2018-09-18T20:29:08.930Z,97802.80
2018-09-18T20:31:36.655Z,97809.57
2018-09-18T20:34:04.417Z,97809.52
2018-09-18T20:36:32.103Z,97812.69
2018-09-18T20:38:59.925Z,97821.85
2018-09-18T20:41:27.608Z,97822.16
2018-09-18T20:43:55.332Z,97823.58
2018-09-18T20:46:23.210Z,97818.95
2018-09-18T20:48:50.960Z,97821.22
2018-09-18T20:51:18.763Z,97830.07
2018-09-18T20:53:46.444Z,97819.41
2018-09-18T20:56:14.210Z,97822.23
2018-09-18T20:58:41.939Z,97822.07
2018-09-18T21:01:09.635Z,97817.62
2018-09-18T21:03:37.303Z,97823.09
2018-09-18T21:06:05.064Z,97824.98
2018-09-18T21:08:32.807Z,97825.37
2018-09-18T21:11:00.459Z,97828.30
2018-09-18T21:13:28.197Z,97825.19
2018-09-18T21:15:55.972Z,97830.73
2018-09-18T21:18:24.399Z,97822.02
2018-09-18T21:20:52.185Z,97825.34
2018-09-18T21:23:19.911Z,97824.47
2018-09-18T21:26:11.992Z,97829.95
2018-09-18T21:28:39.807Z,97835.50
2018-09-18T21:31:07.747Z,97826.98
2018-09-18T21:33:35.414Z,97831.42
2018-09-18T21:36:03.165Z,97824.02
2018-09-18T21:38:31.260Z,97825.09
2018-09-18T21:40:58.927Z,97827.05
2018-09-18T21:43:27.176Z,97823.44
2018-09-18T21:45:54.929Z,97830.84
2018-09-18T21:48:22.655Z,97832.09
2018-09-18T21:50:50.313Z,97834.53
2018-09-18T21:53:18.023Z,97839.03
2018-09-18T21:55:45.960Z,97830.84
2018-09-18T21:58:13.683Z,97833.38
2018-09-18T22:00:41.875Z,97832.91
2018-09-18T22:03:09.690Z,97839.05
2018-09-18T22:05:37.458Z,97840.47
2018-09-18T22:08:05.207Z,97840.31
2018-09-18T22:10:32.966Z,97838.61
2018-09-18T22:13:01.356Z,97839.81
2018-09-18T22:15:29.681Z,97835.23
2018-09-18T22:17:57.567Z,97831.97
2018-09-18T22:20:25.423Z,97838.53
2018-09-18T22:22:53.143Z,97831.91
2018-09-18T22:25:21.764Z,97832.84
2018-09-18T22:27:49.504Z,97829.13
2018-09-18T22:30:17.240Z,97829.40
2018-09-18T22:32:45.053Z,97826.65
2018-09-18T22:35:12.758Z,97825.92
2018-09-18T22:37:40.451Z,97834.18
2018-09-18T22:40:08.266Z,97840.29
2018-09-18T22:42:35.966Z,97832.91
2018-09-18T22:45:03.797Z,97838.81
2018-09-18T22:47:31.601Z,97839.06
2018-09-18T22:49:59.295Z,97842.28
2018-09-18T22:52:26.993Z,97843.19
2018-09-18T22:54:54.755Z,97843.19
2018-09-18T22:57:22.539Z,97839.56
2018-09-18T22:59:50.234Z,97836.70
2018-09-18T23:02:17.940Z,97840.64
2018-09-18T23:04:45.654Z,97839.98
2018-09-18T23:07:13.338Z,97837.73
2018-09-18T23:09:41.053Z,97838.84
2018-09-18T23:12:08.738Z,97835.59
2018-09-18T23:14:36.557Z,97832.77
2018-09-18T23:17:04.455Z,97830.52
2018-09-18T23:19:32.354Z,97835.73
2018-09-18T23:22:00.440Z,97833.15
2018-09-18T23:24:28.262Z,97837.51
2018-09-18T23:26:55.947Z,97839.72
2018-09-18T23:29:23.769Z,97840.83
2018-09-18T23:31:51.413Z,97840.61
2018-09-18T23:34:19.136Z,97846.05
2018-09-18T23:36:46.800Z,97842.37
2018-09-18T23:39:14.478Z,97848.77
2018-09-18T23:41:42.181Z,97847.44
2018-09-18T23:44:09.863Z,97846.25
2018-09-18T23:46:37.581Z,97839.34
2018-09-18T23:49:05.342Z,97842.31
2018-09-18T23:51:33.055Z,97843.30
2018-09-18T23:54:00.707Z,97838.45
2018-09-18T23:56:28.402Z,97843.78
2018-09-18T23:58:56.093Z,97843.02
